Time;durP1;ratioP1;P1;durP2;ratioP2;P2;SDS_P1;SDS_P2;PMS_P1;PMS_P2;Temp;Humidity;BMP_temperature;BMP_pressure;BME280_temperature;BME280_humidity;BME280_pressure;Samples;Min_cycle;Max_cycle;Signal;HPM_P1;HPM_P2
2022/07/09 00:01:54;;;;;;;12.93;6.95;;;17.50;99.90;;;;;;5080017;28;20033;-70
2022/07/09 00:04:23;;;;;;;16.25;7.43;;;17.50;99.90;;;;;;5089815;28;20602;-70
2022/07/09 00:06:49;;;;;;;14.43;6.70;;;17.50;99.90;;;;;;5083899;28;20144;-71
2022/07/09 00:09:14;;;;;;;14.20;7.28;;;17.50;99.90;;;;;;5079004;28;20094;-71
2022/07/09 00:11:40;;;;;;;12.68;7.07;;;17.50;99.90;;;;;;5090562;28;20123;-71
2022/07/09 00:14:05;;;;;;;14.05;7.30;;;17.50;99.90;;;;;;5090335;28;20558;-71
2022/07/09 00:16:31;;;;;;;17.33;7.45;;;17.50;99.90;;;;;;5089323;28;20036;-71
2022/07/09 00:18:57;;;;;;;21.27;6.95;;;17.50;99.90;;;;;;5091217;28;20043;-71
2022/07/09 00:21:22;;;;;;;14.25;6.53;;;17.90;99.90;;;;;;5090993;28;20036;-71
2022/07/09 00:23:48;;;;;;;16.88;7.18;;;17.50;99.90;;;;;;5090106;28;20040;-71
2022/07/09 00:26:14;;;;;;;16.00;6.93;;;17.50;99.90;;;;;;5088450;28;20112;-71
2022/07/09 00:28:39;;;;;;;12.88;6.72;;;17.50;99.90;;;;;;5055160;28;20513;-71
2022/07/09 00:31:05;;;;;;;15.07;6.57;;;17.60;99.90;;;;;;5078521;28;20473;-71
2022/07/09 00:33:31;;;;;;;12.48;7.25;;;17.50;99.90;;;;;;5066342;28;20128;-70
2022/07/09 00:35:56;;;;;;;17.38;7.20;;;17.50;99.90;;;;;;5071949;28;20040;-71
2022/07/09 00:38:22;;;;;;;15.13;7.65;;;17.50;99.90;;;;;;5065245;28;20081;-71
2022/07/09 00:40:47;;;;;;;19.85;7.57;;;17.50;99.90;;;;;;5049071;28;20075;-71
2022/07/09 00:43:21;;;;;;;18.38;7.45;;;17.50;99.90;;;;;;5031254;28;20049;-72
2022/07/09 00:45:47;;;;;;;16.17;7.93;;;17.80;99.90;;;;;;5069316;28;20052;-71
2022/07/09 00:48:14;;;;;;;15.82;7.63;;;17.40;99.90;;;;;;5070052;28;20052;-71
2022/07/09 00:50:41;;;;;;;13.60;7.20;;;17.40;99.90;;;;;;5066531;28;20047;-71
2022/07/09 00:53:14;;;;;;;19.58;8.00;;;17.60;99.90;;;;;;5052720;28;20047;-71
2022/07/09 00:55:40;;;;;;;13.27;7.43;;;17.40;99.90;;;;;;5063826;28;20373;-71
2022/07/09 00:58:08;;;;;;;17.42;7.90;;;17.40;99.90;;;;;;5062637;28;20055;-71
2022/07/09 01:00:34;;;;;;;13.70;7.55;;;17.40;99.90;;;;;;5069080;28;20044;-71
2022/07/09 01:03:00;;;;;;;13.95;7.45;;;17.40;99.90;;;;;;5079826;28;20032;-70
2022/07/09 01:05:26;;;;;;;13.45;7.60;;;17.60;99.90;;;;;;5071244;28;20476;-71
2022/07/09 01:07:53;;;;;;;15.10;7.35;;;17.70;99.90;;;;;;5088645;28;20082;-71
2022/07/09 01:10:18;;;;;;;14.10;7.32;;;17.50;99.90;;;;;;5051450;28;20552;-71
2022/07/09 01:12:45;;;;;;;17.42;7.80;;;17.40;99.90;;;;;;5068563;28;20120;-71
2022/07/09 01:15:11;;;;;;;14.05;7.13;;;17.50;99.90;;;;;;5067936;28;20517;-71
2022/07/09 01:17:38;;;;;;;16.45;7.10;;;17.40;99.90;;;;;;5068176;28;20051;-71
2022/07/09 01:20:04;;;;;;;19.00;7.43;;;17.40;99.90;;;;;;5068612;28;20053;-71
2022/07/09 01:22:29;;;;;;;15.13;6.90;;;17.40;99.90;;;;;;5067810;28;20033;-70
2022/07/09 01:24:57;;;;;;;13.55;7.05;;;17.50;99.90;;;;;;5072508;28;20047;-71
2022/07/09 01:27:22;;;;;;;14.85;6.70;;;17.40;99.90;;;;;;5069595;28;20131;-71
2022/07/09 01:29:49;;;;;;;16.58;6.80;;;17.50;99.90;;;;;;5088326;28;20081;-71
2022/07/09 01:32:18;;;;;;;13.48;6.72;;;17.40;99.90;;;;;;5088365;28;20103;-71
2022/07/09 01:34:44;;;;;;;14.63;6.70;;;17.40;99.90;;;;;;5078543;28;20044;-70
2022/07/09 01:37:09;;;;;;;14.52;6.60;;;17.70;99.90;;;;;;5079261;28;20052;-70
2022/07/09 01:39:35;;;;;;;15.88;6.63;;;17.50;99.90;;;;;;5082987;28;20063;-71
2022/07/09 01:42:19;;;;;;;13.68;6.88;;;17.50;99.90;;;;;;5087972;28;20052;-71
2022/07/09 01:44:46;;;;;;;16.88;7.00;;;17.40;99.90;;;;;;5087945;28;20052;-71
2022/07/09 01:47:14;;;;;;;16.23;6.97;;;17.40;99.90;;;;;;5087737;28;20039;-71
2022/07/09 01:49:40;;;;;;;15.25;7.07;;;17.50;99.90;;;;;;5071861;28;20044;-70
2022/07/09 01:52:06;;;;;;;21.67;7.70;;;17.40;99.90;;;;;;5086948;28;20046;-71
2022/07/09 01:54:32;;;;;;;16.38;7.68;;;17.40;99.90;;;;;;5052914;28;20124;-71
2022/07/09 01:56:57;;;;;;;18.08;7.40;;;17.40;99.90;;;;;;5069672;28;20047;-71
2022/07/09 01:59:23;;;;;;;17.27;7.97;;;17.40;99.90;;;;;;5055805;28;20044;-71
2022/07/09 02:01:48;;;;;;;16.33;8.05;;;17.40;99.90;;;;;;5061463;28;20032;-71
2022/07/09 02:04:14;;;;;;;16.15;7.45;;;17.40;99.90;;;;;;5050179;28;20052;-71
2022/07/09 02:06:40;;;;;;;18.10;7.35;;;17.40;99.90;;;;;;5066141;28;20051;-71
2022/07/09 02:09:06;;;;;;;13.70;7.13;;;17.40;99.90;;;;;;5050050;28;20457;-71
2022/07/09 02:11:32;;;;;;;18.13;7.28;;;17.30;99.90;;;;;;5048031;28;20041;-71
2022/07/09 02:13:58;;;;;;;17.33;7.78;;;17.30;99.90;;;;;;5068132;28;20051;-71
2022/07/09 02:16:24;;;;;;;17.48;7.00;;;17.30;99.90;;;;;;5066678;28;20040;-71
2022/07/09 02:18:50;;;;;;;16.95;7.35;;;17.30;99.90;;;;;;5049089;28;20093;-71
2022/07/09 02:21:16;;;;;;;13.63;6.57;;;17.30;99.90;;;;;;5067103;28;20094;-70
2022/07/09 02:23:42;;;;;;;15.15;6.97;;;17.20;99.90;;;;;;5068596;28;20052;-70
2022/07/09 02:26:07;;;;;;;20.35;6.75;;;17.80;99.90;;;;;;5040069;28;20040;-70
2022/07/09 02:28:33;;;;;;;19.40;7.22;;;17.20;99.90;;;;;;5089169;28;20041;-70
2022/07/09 02:30:59;;;;;;;16.13;7.30;;;17.20;99.90;;;;;;5087306;28;20133;-70
2022/07/09 02:33:24;;;;;;;12.20;6.65;;;17.20;99.90;;;;;;5086813;28;20482;-70
2022/07/09 02:35:50;;;;;;;19.55;6.80;;;17.20;99.90;;;;;;5088011;28;20087;-69
2022/07/09 02:38:16;;;;;;;11.63;6.10;;;17.20;99.90;;;;;;5101526;28;20454;-69
2022/07/09 02:40:41;;;;;;;14.18;6.68;;;17.20;99.90;;;;;;5086087;28;20048;-70
2022/07/09 02:43:07;;;;;;;11.93;6.75;;;17.20;99.90;;;;;;5068848;28;20032;-70
2022/07/09 02:45:33;;;;;;;14.88;6.57;;;17.20;99.90;;;;;;5087836;28;20040;-70
2022/07/09 02:47:58;;;;;;;12.75;6.25;;;17.20;99.90;;;;;;5086528;28;20040;-70
2022/07/09 02:50:24;;;;;;;12.80;5.60;;;17.20;99.90;;;;;;5085529;28;20135;-70
2022/07/09 02:52:50;;;;;;;14.60;5.93;;;17.10;99.90;;;;;;5087194;28;20048;-70
2022/07/09 02:55:16;;;;;;;16.40;6.03;;;17.10;99.90;;;;;;5076226;28;20176;-69
2022/07/09 02:57:41;;;;;;;12.98;6.18;;;17.10;99.90;;;;;;5085688;28;20118;-69
2022/07/09 03:00:08;;;;;;;14.23;5.93;;;17.10;99.90;;;;;;5070705;28;20051;-70
2022/07/09 03:02:33;;;;;;;11.82;6.00;;;17.10;99.90;;;;;;5050139;28;20388;-70
2022/07/09 03:04:59;;;;;;;10.90;5.65;;;17.10;99.90;;;;;;5058248;28;20048;-70
2022/07/09 03:07:25;;;;;;;11.82;5.20;;;17.10;99.90;;;;;;5048534;28;20047;-70
2022/07/09 03:09:50;;;;;;;12.52;5.80;;;17.00;99.90;;;;;;5052646;28;20049;-69
2022/07/09 03:12:16;;;;;;;12.38;5.35;;;17.00;99.90;;;;;;5070452;28;20040;-70
2022/07/09 03:14:41;;;;;;;10.98;5.57;;;17.00;99.90;;;;;;5058677;28;20043;-70
2022/07/09 03:17:07;;;;;;;12.07;5.65;;;17.00;99.90;;;;;;5090437;28;20036;-70
2022/07/09 03:19:32;;;;;;;11.80;5.90;;;17.00;99.90;;;;;;5090745;28;20055;-70
2022/07/09 03:21:58;;;;;;;9.30;5.28;;;17.20;99.90;;;;;;5086225;28;20031;-70
2022/07/09 03:24:24;;;;;;;11.32;5.82;;;17.00;99.90;;;;;;5070292;28;20032;-70
2022/07/09 03:26:49;;;;;;;13.98;5.50;;;17.00;99.90;;;;;;5070742;28;20097;-70
2022/07/09 03:29:15;;;;;;;12.52;5.45;;;17.00;99.90;;;;;;5053474;28;20100;-70
2022/07/09 03:31:40;;;;;;;13.43;5.80;;;16.90;99.90;;;;;;5069705;28;20053;-70
2022/07/09 03:34:06;;;;;;;12.00;5.30;;;17.00;99.90;;;;;;5070923;28;20095;-70
2022/07/09 03:36:32;;;;;;;15.98;5.75;;;17.00;99.90;;;;;;5051124;28;20430;-69
2022/07/09 03:38:57;;;;;;;10.20;5.30;;;16.90;99.90;;;;;;5057996;28;20041;-70
2022/07/09 03:41:23;;;;;;;11.85;5.43;;;16.90;99.90;;;;;;5032091;28;20045;-69
2022/07/09 03:43:49;;;;;;;12.77;5.22;;;16.90;99.90;;;;;;5070083;28;20040;-71
2022/07/09 03:46:15;;;;;;;12.98;5.95;;;17.00;99.90;;;;;;5070418;28;20056;-70
2022/07/09 03:48:40;;;;;;;12.32;5.93;;;16.80;99.90;;;;;;5070599;28;20082;-70
2022/07/09 03:51:06;;;;;;;10.13;5.13;;;17.00;99.90;;;;;;5050981;28;20401;-70
2022/07/09 03:53:32;;;;;;;11.93;4.93;;;16.90;99.90;;;;;;5072083;28;20037;-69
2022/07/09 03:55:58;;;;;;;12.40;5.50;;;16.90;99.90;;;;;;5069797;28;20394;-70
2022/07/09 03:58:23;;;;;;;13.45;5.55;;;16.90;99.90;;;;;;5058488;28;20039;-69
2022/07/09 04:00:49;;;;;;;12.93;5.18;;;16.90;99.90;;;;;;5090965;28;20052;-72
2022/07/09 04:03:15;;;;;;;9.65;5.28;;;16.90;99.90;;;;;;5090018;28;20066;-70
2022/07/09 04:05:41;;;;;;;12.27;5.35;;;16.90;99.90;;;;;;5089841;28;20074;-70
2022/07/09 04:08:07;;;;;;;15.32;5.60;;;17.00;99.90;;;;;;5054035;28;20050;-70
2022/07/09 04:10:32;;;;;;;16.05;5.60;;;17.40;99.90;;;;;;5070601;28;20485;-69
2022/07/09 04:12:58;;;;;;;12.27;5.90;;;16.90;99.90;;;;;;5056895;28;20045;-70
2022/07/09 04:15:24;;;;;;;12.77;5.45;;;17.00;99.90;;;;;;5049498;28;20076;-70
2022/07/09 04:17:49;;;;;;;9.82;5.53;;;17.30;99.90;;;;;;5050002;28;20041;-70
2022/07/09 04:20:15;;;;;;;12.60;5.65;;;17.00;99.90;;;;;;5057613;28;20043;-70
2022/07/09 04:22:40;;;;;;;13.13;6.07;;;17.00;99.90;;;;;;5069083;28;20048;-70
2022/07/09 04:25:06;;;;;;;12.52;5.45;;;17.00;99.90;;;;;;5084198;28;20044;-70
2022/07/09 04:27:33;;;;;;;10.13;5.60;;;17.00;99.90;;;;;;5072546;28;20472;-70
2022/07/09 04:29:59;;;;;;;10.23;5.22;;;17.10;99.90;;;;;;5037554;28;20059;-70
2022/07/09 04:32:25;;;;;;;14.23;5.60;;;17.20;99.90;;;;;;5035376;28;20052;-70
2022/07/09 04:34:50;;;;;;;10.13;5.28;;;17.00;99.90;;;;;;5049855;28;20445;-70
2022/07/09 04:37:16;;;;;;;12.35;5.63;;;17.10;99.90;;;;;;5030702;28;20087;-70
2022/07/09 04:39:42;;;;;;;12.38;5.72;;;17.10;99.90;;;;;;5030092;28;20097;-70
2022/07/09 04:42:09;;;;;;;15.57;6.00;;;17.10;99.90;;;;;;5078242;28;20044;-70
2022/07/09 04:44:34;;;;;;;11.05;5.38;;;17.20;99.90;;;;;;5054796;28;20369;-70
2022/07/09 04:47:00;;;;;;;12.85;5.65;;;17.70;99.90;;;;;;5088883;28;20047;-70
2022/07/09 04:49:26;;;;;;;13.52;5.88;;;17.20;99.90;;;;;;5089419;28;20119;-70
2022/07/09 04:51:51;;;;;;;12.45;6.18;;;17.30;99.90;;;;;;5088297;28;20048;-70
2022/07/09 04:54:17;;;;;;;12.70;5.85;;;17.20;99.90;;;;;;5085187;28;20046;-70
2022/07/09 04:56:43;;;;;;;12.20;5.60;;;17.30;99.90;;;;;;5050363;28;20037;-70
2022/07/09 04:59:08;;;;;;;12.18;5.63;;;17.70;99.90;;;;;;5051389;28;20164;-70
2022/07/09 05:01:34;;;;;;;12.63;5.35;;;17.40;99.90;;;;;;5058078;28;20785;-70
2022/07/09 05:04:00;;;;;;;9.23;5.35;;;17.30;99.90;;;;;;5051387;28;20425;-69
2022/07/09 05:06:25;;;;;;;10.35;4.97;;;17.30;99.90;;;;;;5014233;28;20041;-70
2022/07/09 05:08:51;;;;;;;11.52;5.38;;;17.40;99.90;;;;;;5048541;28;20116;-70
2022/07/09 05:11:17;;;;;;;11.38;5.20;;;17.80;99.90;;;;;;5031938;28;20132;-70
2022/07/09 05:13:42;;;;;;;12.00;5.20;;;17.40;99.90;;;;;;5069172;28;20070;-70
2022/07/09 05:16:08;;;;;;;11.93;5.03;;;17.70;99.90;;;;;;5067720;28;20036;-70
2022/07/09 05:18:35;;;;;;;12.20;5.10;;;17.80;99.90;;;;;;5034209;28;20219;-69
2022/07/09 05:21:00;;;;;;;10.90;4.82;;;17.50;99.90;;;;;;5068482;28;20060;-70
2022/07/09 05:23:26;;;;;;;14.02;5.20;;;17.60;99.90;;;;;;5078472;28;20040;-70
2022/07/09 05:25:53;;;;;;;12.95;5.10;;;17.60;99.90;;;;;;5090891;28;20044;-70
2022/07/09 05:28:19;;;;;;;13.00;4.95;;;17.60;99.90;;;;;;5088377;28;20089;-70
2022/07/09 05:30:44;;;;;;;12.25;5.10;;;17.60;99.90;;;;;;5048996;28;20427;-69
2022/07/09 05:33:10;;;;;;;12.98;5.53;;;17.70;99.90;;;;;;5047888;28;20409;-70
2022/07/09 05:35:36;;;;;;;13.27;5.43;;;18.30;99.90;;;;;;5047566;28;20044;-70
2022/07/09 05:38:01;;;;;;;9.20;4.82;;;17.70;99.90;;;;;;5059085;28;20048;-70
2022/07/09 05:40:27;;;;;;;10.90;4.97;;;17.70;99.90;;;;;;5067470;28;20519;-70
2022/07/09 05:42:53;;;;;;;10.30;4.90;;;17.80;99.90;;;;;;5067565;28;20128;-69
2022/07/09 05:45:18;;;;;;;9.73;4.65;;;17.90;99.90;;;;;;5068539;28;20121;-70
2022/07/09 05:47:44;;;;;;;10.43;4.53;;;17.80;99.90;;;;;;5032672;28;20493;-70
2022/07/09 05:50:10;;;;;;;9.73;5.00;;;17.80;99.90;;;;;;5049681;28;20056;-70
2022/07/09 05:52:35;;;;;;;10.93;4.68;;;18.00;99.90;;;;;;5067806;28;20044;-70
2022/07/09 05:55:03;;;;;;;11.73;5.20;;;17.90;99.90;;;;;;5067789;28;20084;-70
2022/07/09 05:57:29;;;;;;;12.75;4.88;;;17.90;99.90;;;;;;5032775;28;20044;-70
2022/07/09 05:59:55;;;;;;;9.05;4.53;;;17.90;99.90;;;;;;5067644;28;20386;-70
2022/07/09 06:02:21;;;;;;;9.65;4.53;;;17.90;99.90;;;;;;5068011;28;20388;-70
2022/07/09 06:04:47;;;;;;;11.00;4.70;;;17.90;99.90;;;;;;5068282;28;20135;-70
2022/07/09 06:07:12;;;;;;;9.50;4.30;;;18.00;99.90;;;;;;5067071;28;20116;-70
2022/07/09 06:09:38;;;;;;;8.95;4.20;;;18.00;99.90;;;;;;5049441;28;20465;-70
2022/07/09 06:12:04;;;;;;;11.48;4.20;;;18.00;99.90;;;;;;5057359;28;20047;-70
2022/07/09 06:14:30;;;;;;;13.00;4.38;;;18.00;99.90;;;;;;5047362;28;20139;-70
2022/07/09 06:16:56;;;;;;;8.52;4.38;;;18.00;99.90;;;;;;5047313;28;20120;-70
2022/07/09 06:19:22;;;;;;;9.95;4.07;;;18.00;99.90;;;;;;5058928;28;20347;-70
2022/07/09 06:21:48;;;;;;;8.95;4.28;;;18.10;99.90;;;;;;5048833;28;20498;-69
2022/07/09 06:24:13;;;;;;;9.45;4.18;;;18.40;99.90;;;;;;5049126;28;20135;-70
2022/07/09 06:26:39;;;;;;;6.82;3.70;;;18.10;99.90;;;;;;5048422;28;20544;-70
2022/07/09 06:29:05;;;;;;;7.80;4.20;;;18.10;99.90;;;;;;5067349;28;20143;-70
2022/07/09 06:31:31;;;;;;;11.35;4.43;;;18.20;99.90;;;;;;5048915;28;20097;-70
2022/07/09 06:33:58;;;;;;;6.68;3.58;;;18.20;99.90;;;;;;5067974;28;20081;-70
2022/07/09 06:36:23;;;;;;;8.15;3.78;;;18.20;99.90;;;;;;5066730;28;20120;-70
2022/07/09 06:41:33;;;;;;;11.60;3.67;;;18.10;99.90;;;;;;5068890;28;20049;-70
2022/07/09 06:43:59;;;;;;;12.20;3.60;;;18.20;99.90;;;;;;5053407;28;20055;-70
2022/07/09 06:46:24;;;;;;;8.20;3.50;;;18.20;99.90;;;;;;5070642;28;20483;-69
2022/07/09 06:48:50;;;;;;;7.07;4.07;;;18.30;99.90;;;;;;5054013;28;20045;-70
2022/07/09 06:51:15;;;;;;;8.10;3.63;;;18.30;99.90;;;;;;5072056;28;20516;-71
2022/07/09 06:53:41;;;;;;;9.52;3.53;;;18.90;99.90;;;;;;5072530;28;20048;-71
2022/07/09 06:56:07;;;;;;;8.07;3.53;;;18.30;99.90;;;;;;5086984;28;20047;-71
2022/07/09 06:58:33;;;;;;;10.38;3.53;;;18.30;99.90;;;;;;5073632;28;20127;-70
2022/07/09 07:00:58;;;;;;;12.77;3.60;;;18.40;99.90;;;;;;5072952;28;20043;-70
2022/07/09 07:03:24;;;;;;;11.00;3.60;;;18.60;99.90;;;;;;5050952;28;20041;-70
2022/07/09 07:05:49;;;;;;;7.22;3.00;;;18.40;99.90;;;;;;5051263;28;20408;-70
2022/07/09 07:08:15;;;;;;;9.07;3.15;;;18.40;99.90;;;;;;5064415;28;20049;-70
2022/07/09 07:10:41;;;;;;;8.02;2.88;;;18.50;99.90;;;;;;5051239;28;20047;-70
2022/07/09 07:13:06;;;;;;;12.00;2.92;;;18.60;99.90;;;;;;5050287;28;20050;-71
2022/07/09 07:15:32;;;;;;;6.47;2.53;;;18.50;99.90;;;;;;5076971;28;20044;-70
2022/07/09 07:17:58;;;;;;;9.18;2.70;;;18.60;99.90;;;;;;5053163;28;20052;-70
2022/07/09 07:20:24;;;;;;;9.98;2.55;;;18.70;99.90;;;;;;5052087;28;20095;-70
2022/07/09 07:22:51;;;;;;;7.57;2.50;;;19.10;99.90;;;;;;5069558;28;20056;-70
2022/07/09 07:25:16;;;;;;;5.97;2.35;;;18.80;99.90;;;;;;5070006;28;20044;-70
2022/07/09 07:27:42;;;;;;;7.43;2.40;;;18.80;99.90;;;;;;5071818;28;20048;-71
2022/07/09 07:30:08;;;;;;;9.45;2.33;;;18.80;99.90;;;;;;5053036;28;20045;-71
2022/07/09 07:32:34;;;;;;;10.65;2.38;;;18.80;99.90;;;;;;5069634;28;20056;-70
2022/07/09 07:35:00;;;;;;;10.50;2.42;;;18.90;99.90;;;;;;5069796;28;20116;-70
2022/07/09 07:37:25;;;;;;;7.45;2.55;;;19.00;99.90;;;;;;5069756;28;20044;-71
2022/07/09 07:39:51;;;;;;;7.05;2.25;;;19.00;99.90;;;;;;5052622;28;20052;-70
2022/07/09 07:42:17;;;;;;;6.85;2.45;;;19.20;99.90;;;;;;5049295;28;20044;-70
2022/07/09 07:44:42;;;;;;;11.02;2.47;;;19.40;99.90;;;;;;5069424;28;20063;-70
2022/07/09 07:47:08;;;;;;;5.63;2.08;;;19.50;99.90;;;;;;5052457;28;20036;-70
2022/07/09 07:49:34;;;;;;;6.22;2.30;;;19.60;99.90;;;;;;5069711;28;20499;-70
2022/07/09 07:51:59;;;;;;;9.10;2.47;;;19.60;99.90;;;;;;5068963;28;20044;-70
2022/07/09 07:54:25;;;;;;;6.68;2.40;;;19.50;99.90;;;;;;5052474;28;20532;-70
2022/07/09 07:56:51;;;;;;;8.32;2.28;;;19.50;99.90;;;;;;5069111;28;20076;-71
2022/07/09 07:59:17;;;;;;;6.30;2.50;;;19.40;99.90;;;;;;5070043;28;20048;-70
2022/07/09 08:01:43;;;;;;;9.73;2.40;;;19.40;99.90;;;;;;5051772;28;20142;-70
2022/07/09 08:04:09;;;;;;;7.22;2.10;;;19.50;99.90;;;;;;5069149;28;20044;-71
2022/07/09 08:06:35;;;;;;;7.50;2.25;;;19.60;99.90;;;;;;5068985;28;20052;-71
2022/07/09 08:09:02;;;;;;;6.53;1.90;;;19.60;99.90;;;;;;5051164;28;20500;-72
2022/07/09 08:11:27;;;;;;;7.47;2.30;;;20.00;99.90;;;;;;5065312;28;20112;-72
2022/07/09 08:13:53;;;;;;;7.72;2.10;;;19.60;99.90;;;;;;5050327;28;20127;-73
2022/07/09 08:16:19;;;;;;;5.75;2.17;;;19.70;99.90;;;;;;5049197;28;20187;-73
2022/07/09 08:18:45;;;;;;;8.57;2.40;;;19.70;99.90;;;;;;5031871;28;20436;-73
2022/07/09 08:21:11;;;;;;;5.45;1.95;;;20.40;99.90;;;;;;5048325;28;20049;-72
2022/07/09 08:23:51;;;;;;;8.48;2.15;;;20.00;99.90;;;;;;5057737;28;20155;-73
2022/07/09 08:26:27;;;;;;;6.25;2.40;;;20.10;99.90;;;;;;5039839;28;20049;-73
2022/07/09 08:28:53;;;;;;;7.07;2.22;;;20.20;99.90;;;;;;5067753;28;20434;-72
2022/07/09 08:31:20;;;;;;;7.07;2.10;;;20.20;99.90;;;;;;5049954;28;20075;-72
2022/07/09 08:33:48;;;;;;;8.38;2.13;;;20.30;99.90;;;;;;5049020;28;20049;-73
2022/07/09 08:36:15;;;;;;;8.02;2.15;;;20.20;99.90;;;;;;5056049;28;20036;-71
2022/07/09 08:38:41;;;;;;;7.78;2.20;;;20.20;99.90;;;;;;5045047;28;20072;-71
2022/07/09 08:41:07;;;;;;;5.82;1.92;;;20.20;99.90;;;;;;5070132;28;20587;-71
2022/07/09 08:43:38;;;;;;;10.48;2.10;;;20.20;99.90;;;;;;5069865;28;20040;-79
2022/07/09 08:46:04;;;;;;;7.88;2.30;;;20.40;99.90;;;;;;5069013;28;20052;-76
2022/07/09 08:48:35;;;;;;;5.55;2.10;;;20.50;99.90;;;;;;5069740;28;20058;-75
2022/07/09 08:51:01;;;;;;;8.40;2.50;;;20.60;99.90;;;;;;5035077;28;20404;-75
2022/07/09 08:53:27;;;;;;;6.45;1.95;;;20.60;99.90;;;;;;5067617;28;20124;-77
2022/07/09 08:55:54;;;;;;;8.52;2.30;;;20.50;99.90;;;;;;5069696;28;20127;-76
2022/07/09 08:58:19;;;;;;;7.20;2.47;;;20.60;99.90;;;;;;5069480;28;20060;-77
2022/07/09 09:00:47;;;;;;;6.03;2.13;;;20.60;99.90;;;;;;5064428;28;20053;-77
2022/07/09 09:03:13;;;;;;;5.30;1.92;;;20.70;99.90;;;;;;5049342;28;20379;-76
2022/07/09 09:05:39;;;;;;;6.95;1.90;;;20.80;99.90;;;;;;5068605;28;20127;-75
2022/07/09 09:08:19;;;;;;;7.80;2.33;;;20.90;99.90;;;;;;5050599;28;20143;-75
2022/07/09 09:10:46;;;;;;;7.20;2.10;;;21.20;99.90;;;;;;5068432;28;20048;-74
2022/07/09 09:13:18;;;;;;;6.88;1.90;;;21.50;99.90;;;;;;5068285;28;20055;-75
2022/07/09 09:15:44;;;;;;;6.78;1.85;;;21.60;99.90;;;;;;5068054;28;20123;-75
2022/07/09 09:18:10;;;;;;;9.07;2.38;;;21.60;99.90;;;;;;5060832;28;20135;-76
2022/07/09 09:20:36;;;;;;;8.05;1.90;;;21.60;99.90;;;;;;5091551;28;20372;-79
2022/07/09 09:23:04;;;;;;;5.97;2.25;;;21.50;99.90;;;;;;5087984;28;20115;-78
2022/07/09 09:25:30;;;;;;;12.32;2.30;;;21.30;99.90;;;;;;5088484;28;20059;-79
2022/07/09 09:27:58;;;;;;;5.95;2.08;;;21.20;99.90;;;;;;5076672;28;20066;-79
2022/07/09 09:30:25;;;;;;;10.50;1.90;;;21.10;99.90;;;;;;5034386;28;20044;-79
2022/07/09 09:33:02;;;;;;;8.10;2.28;;;21.20;99.90;;;;;;5067897;28;20404;-79
2022/07/09 09:35:42;;;;;;;9.48;2.05;;;21.30;99.90;;;;;;5065291;28;20440;-77
2022/07/09 09:38:08;;;;;;;6.95;2.22;;;21.50;99.90;;;;;;5051806;28;20541;-76
2022/07/09 09:40:36;;;;;;;6.97;1.90;;;21.70;99.90;;;;;;5055709;28;20120;-77
2022/07/09 09:43:02;;;;;;;7.97;2.10;;;21.80;99.90;;;;;;5075592;28;20086;-78
2022/07/09 09:45:28;;;;;;;7.97;2.35;;;21.80;99.90;;;;;;5068646;28;20039;-78
2022/07/09 09:47:54;;;;;;;6.65;2.47;;;21.70;99.90;;;;;;5079858;28;20122;-78
2022/07/09 09:50:23;;;;;;;7.38;2.10;;;21.80;99.90;;;;;;5080560;28;20044;-78
2022/07/09 09:52:50;;;;;;;9.75;2.08;;;21.70;99.90;;;;;;5084400;28;20141;-82
2022/07/09 09:55:18;;;;;;;4.50;1.75;;;21.80;99.90;;;;;;5050668;28;20114;-83
2022/07/09 09:57:44;;;;;;;8.55;2.33;;;22.00;99.90;;;;;;5044257;28;20045;-82
2022/07/09 10:00:15;;;;;;;5.57;2.10;;;22.20;99.90;;;;;;5057946;28;20072;-85
2022/07/09 10:02:46;;;;;;;5.30;2.00;;;22.50;99.90;;;;;;5063125;28;20536;-83
2022/07/09 10:05:13;;;;;;;8.43;2.40;;;22.60;99.90;;;;;;5085580;28;20048;-84
2022/07/09 10:07:40;;;;;;;7.15;2.30;;;22.80;99.90;;;;;;5062521;28;20037;-84
2022/07/09 10:10:06;;;;;;;7.35;2.13;;;22.80;99.90;;;;;;5070478;28;20523;-84
2022/07/09 10:12:36;;;;;;;6.63;2.30;;;22.90;99.90;;;;;;5037813;28;20049;-83
2022/07/09 10:15:22;;;;;;;7.57;2.33;;;23.70;99.90;;;;;;5051278;28;20037;-75
2022/07/09 10:17:48;;;;;;;4.85;2.00;;;25.30;99.90;;;;;;5049977;28;20061;-83
2022/07/09 10:20:14;;;;;;;7.93;2.22;;;25.80;99.90;;;;;;5080062;28;20047;-83
2022/07/09 10:22:40;;;;;;;5.10;1.90;;;25.50;99.90;;;;;;5072979;28;20053;-83
2022/07/09 10:25:07;;;;;;;8.45;2.03;;;24.60;99.90;;;;;;5069512;28;20406;-83
2022/07/09 10:27:48;;;;;;;6.82;2.25;;;23.70;99.90;;;;;;5047177;28;20074;-83
2022/07/09 10:30:27;;;;;;;8.63;1.88;;;23.10;99.90;;;;;;5029943;28;20055;-79
2022/07/09 10:33:06;;;;;;;10.43;2.40;;;22.50;99.90;;;;;;5047723;28;20115;-83
2022/07/09 10:35:45;;;;;;;8.70;2.50;;;21.90;99.90;;;;;;5082101;28;20127;-83
2022/07/09 10:38:12;;;;;;;8.07;2.10;;;21.60;99.90;;;;;;5079076;28;20048;-82
2022/07/09 10:40:40;;;;;;;10.82;2.25;;;21.50;99.90;;;;;;5069569;28;20051;-82
2022/07/09 10:43:05;;;;;;;11.48;2.40;;;21.20;99.90;;;;;;5068258;28;20052;-82
2022/07/09 10:45:45;;;;;;;11.50;2.78;;;21.20;99.90;;;;;;5068150;28;20425;-83
2022/07/09 10:48:12;;;;;;;9.15;2.05;;;21.30;99.90;;;;;;5069812;28;20053;-82
2022/07/09 10:50:43;;;;;;;10.75;2.30;;;21.60;99.90;;;;;;5070646;28;20051;-83
2022/07/09 10:53:11;;;;;;;7.63;2.30;;;21.80;99.90;;;;;;5045314;28;20041;-81
2022/07/09 10:55:37;;;;;;;8.63;2.25;;;21.90;99.90;;;;;;5068270;28;20132;-82
2022/07/09 10:58:07;;;;;;;8.57;2.38;;;21.90;99.90;;;;;;5067195;28;20480;-81
2022/07/09 11:00:33;;;;;;;7.20;2.15;;;21.80;99.90;;;;;;5072527;28;20041;-83
2022/07/09 11:03:04;;;;;;;7.18;1.90;;;21.90;99.90;;;;;;5060840;28;20086;-83
2022/07/09 11:05:42;;;;;;;8.45;2.00;;;22.20;99.90;;;;;;5052645;28;20060;-83
2022/07/09 11:08:08;;;;;;;9.93;2.05;;;22.60;99.90;;;;;;5076886;28;20036;-83
2022/07/09 11:10:39;;;;;;;8.98;2.40;;;22.70;99.90;;;;;;5044481;28;20497;-82
2022/07/09 11:13:08;;;;;;;6.95;1.77;;;22.90;99.90;;;;;;5067643;28;20036;-83
2022/07/09 11:15:35;;;;;;;8.43;1.98;;;23.30;99.90;;;;;;5042100;28;20116;-84
2022/07/09 11:18:13;;;;;;;5.95;1.85;;;23.60;99.90;;;;;;5047211;28;20050;-85
2022/07/09 11:20:43;;;;;;;7.63;1.70;;;23.90;99.90;;;;;;5042850;28;20093;-83
2022/07/09 11:23:10;;;;;;;4.18;1.50;;;24.00;99.90;;;;;;5064283;28;20044;-81
2022/07/09 11:25:38;;;;;;;5.10;1.50;;;23.90;99.90;;;;;;5069618;28;20040;-84
2022/07/09 11:28:04;;;;;;;5.35;1.52;;;23.80;99.90;;;;;;5066027;28;20037;-83
2022/07/09 11:30:32;;;;;;;5.32;1.50;;;23.70;99.90;;;;;;5069817;28;20056;-82
2022/07/09 11:32:58;;;;;;;6.72;1.60;;;24.20;99.90;;;;;;5050435;28;20166;-85
2022/07/09 11:35:35;;;;;;;10.10;1.55;;;24.20;99.90;;;;;;5069853;28;20131;-85
2022/07/09 11:38:09;;;;;;;4.72;1.67;;;24.60;99.90;;;;;;5037263;28;20040;-83
2022/07/09 11:40:34;;;;;;;5.57;1.80;;;25.60;99.90;;;;;;5068314;28;20518;-85
2022/07/09 11:43:00;;;;;;;7.38;1.60;;;26.80;98.70;;;;;;5069430;28;20130;-84
2022/07/09 11:45:29;;;;;;;4.93;1.70;;;27.80;97.50;;;;;;5070108;28;20170;-83
2022/07/09 11:48:07;;;;;;;8.98;1.55;;;29.10;96.00;;;;;;5051350;28;20127;-85
2022/07/09 11:50:34;;;;;;;6.53;1.70;;;30.60;94.20;;;;;;5084016;28;20114;-84
2022/07/09 11:52:59;;;;;;;6.47;1.60;;;31.00;92.90;;;;;;5071643;28;20097;-84
2022/07/09 11:55:31;;;;;;;6.28;1.60;;;32.20;92.00;;;;;;5034543;28;20102;-84
2022/07/09 11:57:59;;;;;;;7.80;1.92;;;33.00;90.60;;;;;;5069494;28;20056;-85
2022/07/09 12:00:29;;;;;;;6.72;1.60;;;33.60;90.40;;;;;;5055893;28;20083;-84
2022/07/09 12:02:56;;;;;;;7.63;1.77;;;33.40;87.00;;;;;;5064040;28;20375;-84
2022/07/09 12:05:35;;;;;;;5.30;1.50;;;33.30;88.00;;;;;;5074687;28;20041;-84
2022/07/09 12:08:04;;;;;;;6.13;1.65;;;33.80;86.10;;;;;;5039367;28;20450;-86
2022/07/09 12:10:35;;;;;;;6.10;1.50;;;34.40;86.90;;;;;;5072856;28;20041;-82
2022/07/09 12:13:02;;;;;;;5.78;1.70;;;34.40;84.80;;;;;;5067645;28;20037;-84
2022/07/09 12:15:29;;;;;;;7.35;1.60;;;33.20;83.40;;;;;;5068884;28;20040;-83
2022/07/09 12:17:59;;;;;;;4.95;1.65;;;31.90;85.00;;;;;;5041187;28;20043;-84
2022/07/09 12:20:30;;;;;;;5.20;1.40;;;30.90;84.70;;;;;;5037069;28;20112;-87
2022/07/09 12:22:59;;;;;;;4.97;1.50;;;29.80;86.50;;;;;;5067458;28;20033;-82
2022/07/09 12:25:25;;;;;;;4.72;1.70;;;28.90;88.40;;;;;;5059180;28;20036;-78
2022/07/09 12:27:51;;;;;;;5.82;1.50;;;28.30;89.60;;;;;;5061233;28;20032;-79
2022/07/09 12:30:17;;;;;;;8.90;1.60;;;27.50;90.10;;;;;;5070509;28;20043;-82
2022/07/09 12:32:43;;;;;;;5.85;1.60;;;26.80;90.80;;;;;;5068440;28;21036;-82
2022/07/09 12:35:11;;;;;;;4.60;1.90;;;26.20;91.20;;;;;;5047947;28;20048;-80
2022/07/09 12:37:37;;;;;;;5.97;1.83;;;25.50;91.80;;;;;;5024602;28;20032;-85
2022/07/09 12:40:05;;;;;;;5.70;1.85;;;25.00;92.40;;;;;;5067646;28;20436;-80
2022/07/09 12:42:30;;;;;;;6.13;1.55;;;25.00;93.00;;;;;;5049676;28;20045;-82